Time;durP1;ratioP1;P1;durP2;ratioP2;P2;SDS_P1;SDS_P2;PMS_P1;PMS_P2;Temp;Humidity;BMP_temperature;BMP_pressure;BME280_temperature;BME280_humidity;BME280_pressure;Samples;Min_cycle;Max_cycle;Signal;HPM_P1;HPM_P2
2022/01/17 00:00:09;0.00;0.00;0.62;0.00;0.00;0.62;2.87;2.40;;;22.10;28.70;;;;;;2230892;62;20582;-60
2022/01/17 00:02:54;0.00;0.00;0.62;0.00;0.00;0.62;2.60;1.90;;;22.10;28.70;;;;;;2234249;62;20462;-61
2022/01/17 00:05:40;0.00;0.00;0.62;0.00;0.00;0.62;2.77;2.40;;;22.20;28.80;;;;;;2236002;56;20396;-60
2022/01/17 00:08:25;0.00;0.00;0.62;0.00;0.00;0.62;2.33;1.83;;;22.10;28.80;;;;;;2249000;61;20368;-61
2022/01/17 00:11:11;0.00;0.00;0.62;0.00;0.00;0.62;2.37;1.80;;;22.20;28.80;;;;;;2249849;61;20444;-62
2022/01/17 00:13:57;0.00;0.00;0.62;0.00;0.00;0.62;2.77;2.20;;;22.10;28.80;;;;;;2248967;61;20361;-60
2022/01/17 00:16:49;0.00;0.00;0.62;0.00;0.00;0.62;2.97;1.93;;;22.10;28.80;;;;;;2249792;61;20361;-59
2022/01/17 00:19:41;0.00;0.00;0.62;0.00;0.00;0.62;2.60;2.20;;;22.10;28.80;;;;;;2249617;61;20577;-61
2022/01/17 00:22:25;0.00;0.00;0.62;0.00;0.00;0.62;3.07;2.67;;;22.10;28.80;;;;;;2249047;61;20756;-61
2022/01/17 00:25:10;0.00;0.00;0.62;0.00;0.00;0.62;4.70;2.70;;;22.10;28.80;;;;;;2249770;61;20812;-61
2022/01/17 00:27:54;0.00;0.00;0.62;0.00;0.00;0.62;4.27;2.83;;;22.10;28.60;;;;;;2249557;61;20368;-61
2022/01/17 00:30:39;0.00;0.00;0.62;0.00;0.00;0.62;4.03;2.70;;;22.10;28.40;;;;;;2249865;61;20428;-60
2022/01/17 00:33:23;0.00;0.00;0.62;0.00;0.00;0.62;4.10;2.93;;;22.00;28.20;;;;;;2250315;61;20433;-60
2022/01/17 00:36:09;0.00;0.00;0.62;0.00;0.00;0.62;4.07;2.30;;;22.00;28.00;;;;;;2249124;61;20364;-61
2022/01/17 00:38:54;0.00;0.00;0.62;0.00;0.00;0.62;5.07;2.33;;;21.90;27.90;;;;;;2249548;61;20372;-61
2022/01/17 00:41:38;0.00;0.00;0.62;0.00;0.00;0.62;3.40;2.57;;;21.90;27.90;;;;;;2249808;61;20384;-62
2022/01/17 00:44:23;0.00;0.00;0.62;0.00;0.00;0.62;4.37;2.40;;;21.90;28.00;;;;;;2249564;61;20423;-60
2022/01/17 00:47:08;0.00;0.00;0.62;0.00;0.00;0.62;4.00;2.33;;;21.80;27.90;;;;;;2250056;61;20392;-61
2022/01/17 00:49:53;0.00;0.00;0.62;0.00;0.00;0.62;4.30;2.30;;;21.80;27.90;;;;;;2249490;61;20458;-62
2022/01/17 00:52:39;0.00;0.00;0.62;0.00;0.00;0.62;2.77;2.30;;;21.70;27.80;;;;;;2249627;61;20392;-61
2022/01/17 00:55:23;0.00;0.00;0.62;0.00;0.00;0.62;3.83;2.50;;;21.70;27.80;;;;;;2250140;61;20353;-61
2022/01/17 00:58:08;0.00;0.00;0.62;0.00;0.00;0.62;2.90;2.20;;;21.60;27.80;;;;;;2248999;61;20364;-61
2022/01/17 01:00:53;0.00;0.00;0.62;0.00;0.00;0.62;3.97;2.53;;;21.60;27.70;;;;;;2249864;61;20384;-61
2022/01/17 01:03:37;0.00;0.00;0.62;0.00;0.00;0.62;3.80;2.50;;;21.50;27.70;;;;;;2249731;61;20369;-61
2022/01/17 01:06:22;0.00;0.00;0.62;0.00;0.00;0.62;3.47;2.20;;;21.50;28.20;;;;;;2249226;61;20440;-61
2022/01/17 01:09:08;0.00;0.00;0.62;0.00;0.00;0.62;4.83;2.37;;;21.40;27.60;;;;;;2250008;61;20349;-61
2022/01/17 01:11:53;0.00;0.00;0.62;0.00;0.00;0.62;3.63;1.83;;;21.30;27.50;;;;;;2249513;61;20529;-61
2022/01/17 01:14:41;0.00;0.00;0.62;0.00;0.00;0.62;5.23;2.20;;;21.30;27.50;;;;;;2249636;61;20404;-62
2022/01/17 01:17:37;0.00;0.00;0.62;0.00;0.00;0.62;6.73;2.70;;;21.30;27.50;;;;;;2249877;61;20638;-60
2022/01/17 01:29:33;0.00;0.00;0.62;0.00;0.00;0.62;4.30;1.80;;;21.10;27.40;;;;;;2249491;61;20759;-62
2022/01/17 01:32:21;0.00;0.00;0.62;0.00;0.00;0.62;3.87;1.33;;;21.00;27.30;;;;;;2249968;61;20736;-61
2022/01/17 01:35:10;0.00;0.00;0.62;0.00;0.00;0.62;3.30;1.80;;;21.00;27.30;;;;;;2249211;61;20408;-60
2022/01/17 01:37:55;0.00;0.00;0.62;0.00;0.00;0.62;3.73;1.63;;;21.00;27.30;;;;;;2249585;61;20365;-62
2022/01/17 01:40:39;0.00;0.00;0.62;0.00;0.00;0.62;2.33;1.40;;;20.90;27.20;;;;;;2249734;61;20654;-61
2022/01/17 01:43:25;0.00;0.00;0.62;0.00;0.00;0.62;3.60;1.33;;;20.80;27.20;;;;;;2249241;61;20349;-60
2022/01/17 01:46:14;0.00;0.00;0.62;0.00;0.00;0.62;5.77;2.03;;;20.80;27.20;;;;;;2249725;61;20380;-60
2022/01/17 01:48:58;0.00;0.00;0.62;0.00;0.00;0.62;3.17;1.67;;;20.80;27.20;;;;;;2249685;61;20400;-61
2022/01/17 01:51:43;0.00;0.00;0.62;0.00;0.00;0.62;4.13;1.90;;;20.80;27.20;;;;;;2249446;61;20449;-60
2022/01/17 01:54:28;0.00;0.00;0.62;0.00;0.00;0.62;4.07;1.43;;;20.70;27.10;;;;;;2249883;61;20376;-61
2022/01/17 01:57:12;0.00;0.00;0.62;0.00;0.00;0.62;3.37;1.30;;;20.70;27.10;;;;;;2249003;61;20424;-61
2022/01/17 01:59:58;0.00;0.00;0.62;0.00;0.00;0.62;3.13;1.20;;;20.60;27.00;;;;;;2249717;61;20567;-61
2022/01/17 02:02:43;0.00;0.00;0.62;0.00;0.00;0.62;3.57;1.57;;;20.60;27.00;;;;;;2249696;61;20416;-60
2022/01/17 02:05:28;0.00;0.00;0.62;0.00;0.00;0.62;3.30;1.37;;;20.50;26.90;;;;;;2249180;61;20586;-60
2022/01/17 02:08:13;0.00;0.00;0.62;0.00;0.00;0.62;3.17;1.33;;;20.50;26.90;;;;;;2249310;61;20388;-61
2022/01/17 02:10:58;0.00;0.00;0.62;0.00;0.00;0.62;5.67;2.13;;;20.50;26.90;;;;;;2249063;61;20388;-61
2022/01/17 02:13:43;0.00;0.00;0.62;0.00;0.00;0.62;4.17;1.60;;;20.40;26.90;;;;;;2249299;61;20396;-60
2022/01/17 02:16:30;0.00;0.00;0.62;0.00;0.00;0.62;4.67;1.73;;;20.40;26.90;;;;;;2249874;61;20376;-60
2022/01/17 02:19:20;0.00;0.00;0.62;0.00;0.00;0.62;4.80;1.70;;;20.40;27.00;;;;;;2248880;61;20582;-60
2022/01/17 02:22:06;0.00;0.00;0.62;0.00;0.00;0.62;4.20;1.30;;;20.40;27.00;;;;;;2249745;61;20404;-61
2022/01/17 02:24:50;0.00;0.00;0.62;0.00;0.00;0.62;2.97;1.13;;;20.30;26.80;;;;;;2249695;61;20597;-61
2022/01/17 02:27:35;0.00;0.00;0.62;0.00;0.00;0.62;4.77;1.53;;;20.30;26.80;;;;;;2249214;61;20412;-61
2022/01/17 02:30:22;0.00;0.00;0.62;0.00;0.00;0.62;3.70;1.40;;;20.20;26.70;;;;;;2249588;61;20364;-61
2022/01/17 02:33:07;0.00;0.00;0.62;0.00;0.00;0.62;4.20;1.83;;;20.20;26.70;;;;;;2249513;61;20353;-61
2022/01/17 02:35:53;0.00;0.00;0.62;0.00;0.00;0.62;6.03;1.97;;;20.10;26.70;;;;;;2249361;61;20349;-61
2022/01/17 02:38:40;0.00;0.00;0.62;0.00;0.00;0.62;6.37;2.00;;;20.10;26.70;;;;;;2249702;61;20364;-61
2022/01/17 02:41:28;0.00;0.00;0.62;0.00;0.00;0.62;5.23;1.87;;;20.10;26.70;;;;;;2248921;61;20424;-60
2022/01/17 02:44:13;0.00;0.00;0.62;0.00;0.00;0.62;4.60;1.80;;;20.00;26.60;;;;;;2249479;61;20424;-60
2022/01/17 02:47:00;0.00;0.00;0.62;0.00;0.00;0.62;3.70;1.10;;;20.00;26.60;;;;;;2249655;61;20425;-61
2022/01/17 02:49:45;0.00;0.00;0.62;0.00;0.00;0.62;5.40;1.60;;;20.00;26.60;;;;;;2249090;61;20368;-60
2022/01/17 02:52:29;0.00;0.00;0.62;0.00;0.00;0.62;10.00;2.60;;;19.90;26.50;;;;;;2249673;61;20513;-59
2022/01/17 02:55:15;0.00;0.00;0.62;0.00;0.00;0.62;7.20;2.03;;;19.90;26.50;;;;;;2249477;61;20396;-60
2022/01/17 02:58:00;0.00;0.00;0.62;0.00;0.00;0.62;3.33;1.30;;;19.80;26.50;;;;;;2249092;61;20368;-60
2022/01/17 03:00:45;0.00;0.00;0.62;0.00;0.00;0.62;3.70;1.60;;;19.80;26.50;;;;;;2249509;61;20388;-61
2022/01/17 03:03:31;0.00;0.00;0.62;0.00;0.00;0.62;4.70;1.60;;;19.70;26.50;;;;;;2249369;61;20360;-60
2022/01/17 03:06:18;0.00;0.00;0.62;0.00;0.00;0.62;4.63;1.43;;;19.70;26.50;;;;;;2249614;61;20368;-61
2022/01/17 03:09:02;0.00;0.00;0.62;0.00;0.00;0.62;6.03;1.80;;;19.70;26.50;;;;;;2249767;61;20420;-61
2022/01/17 03:11:49;0.00;0.00;0.62;0.00;0.00;0.62;5.67;1.50;;;19.60;26.60;;;;;;2248965;61;20461;-61
2022/01/17 03:14:33;0.00;0.00;0.62;0.00;0.00;0.62;4.60;1.70;;;19.60;26.70;;;;;;2249640;61;20721;-60
2022/01/17 03:17:17;0.00;0.00;0.62;0.00;0.00;0.62;3.20;1.57;;;19.60;26.70;;;;;;2249600;61;20396;-60
2022/01/17 03:20:03;0.00;0.00;0.62;0.00;0.00;0.62;5.00;1.83;;;19.50;26.70;;;;;;2249105;61;20360;-60
2022/01/17 03:22:48;0.00;0.00;0.62;0.00;0.00;0.62;6.90;1.70;;;19.50;26.70;;;;;;2249611;61;20358;-60
2022/01/17 03:25:33;0.00;0.00;0.62;0.00;0.00;0.62;4.20;1.80;;;19.50;26.70;;;;;;2249369;61;20432;-65
2022/01/17 03:28:19;0.00;0.00;0.62;0.00;0.00;0.62;7.03;1.90;;;19.50;26.70;;;;;;2249658;61;20772;-61
2022/01/17 03:31:05;0.00;0.00;0.62;0.00;0.00;0.62;3.40;1.60;;;19.40;26.60;;;;;;2249655;61;20625;-60
2022/01/17 03:33:49;0.00;0.00;0.62;0.00;0.00;0.62;7.57;2.00;;;19.40;26.70;;;;;;2249064;61;20740;-60
2022/01/17 03:36:34;0.00;0.00;0.62;0.00;0.00;0.62;5.57;1.67;;;19.40;26.80;;;;;;2249330;61;20394;-61
2022/01/17 03:39:18;0.00;0.00;0.62;0.00;0.00;0.62;4.33;2.27;;;19.30;26.70;;;;;;2249419;61;20364;-60
2022/01/17 03:42:03;0.00;0.00;0.62;0.00;0.00;0.62;5.43;1.77;;;19.30;26.70;;;;;;2248811;61;20388;-60
2022/01/17 03:44:50;0.00;0.00;0.62;0.00;0.00;0.62;4.60;1.90;;;19.30;26.70;;;;;;2249371;61;20388;-60
2022/01/17 03:47:35;0.00;0.00;0.62;0.00;0.00;0.62;3.23;1.33;;;19.20;26.70;;;;;;2249274;61;20783;-61
2022/01/17 03:50:23;0.00;0.00;0.62;0.00;0.00;0.62;4.40;1.53;;;19.20;26.70;;;;;;2248648;61;20391;-61
2022/01/17 03:53:08;0.00;0.00;0.62;0.00;0.00;0.62;6.07;1.80;;;19.20;26.80;;;;;;2250277;61;20361;-61
2022/01/17 03:55:54;0.00;0.00;0.62;0.00;0.00;0.62;3.77;1.77;;;19.20;26.70;;;;;;2249377;61;20355;-61
2022/01/17 03:58:39;0.00;0.00;0.62;0.00;0.00;0.62;6.87;2.27;;;19.10;26.70;;;;;;2249601;61;20364;-60
2022/01/17 04:01:25;0.00;0.00;0.62;0.00;0.00;0.62;6.57;2.27;;;19.10;26.70;;;;;;2249897;61;20743;-59
2022/01/17 04:04:10;0.00;0.00;0.62;0.00;0.00;0.62;3.30;1.60;;;19.10;26.70;;;;;;2249816;61;20376;-60
2022/01/17 04:06:54;0.00;0.00;0.62;0.00;0.00;0.62;8.23;2.03;;;19.00;26.60;;;;;;2250207;61;20384;-60
2022/01/17 04:09:39;0.00;0.00;0.62;0.00;0.00;0.62;8.27;1.93;;;19.00;26.70;;;;;;2249696;61;20404;-61
2022/01/17 04:12:23;0.00;0.00;0.62;0.00;0.00;0.62;5.50;2.03;;;19.00;26.80;;;;;;2249755;61;20420;-59
2022/01/17 04:15:10;0.00;0.00;0.62;0.00;0.00;0.62;5.40;1.83;;;19.00;26.80;;;;;;2250245;61;20408;-61
2022/01/17 04:17:56;0.00;0.00;0.62;0.00;0.00;0.62;7.40;2.00;;;18.90;26.80;;;;;;2249239;61;20495;-60
2022/01/17 04:20:42;0.00;0.00;0.62;0.00;0.00;0.62;6.30;1.87;;;18.90;26.80;;;;;;2249922;61;20384;-59
2022/01/17 04:23:26;0.00;0.00;0.62;0.00;0.00;0.62;4.37;1.93;;;18.90;26.80;;;;;;2249601;61;20380;-60
2022/01/17 04:26:11;0.00;0.00;0.62;0.00;0.00;0.62;5.07;1.60;;;18.90;26.80;;;;;;2249554;61;20377;-61
2022/01/17 04:28:56;0.00;0.00;0.62;0.00;0.00;0.62;7.07;1.57;;;18.90;26.80;;;;;;2249979;61;20368;-59
2022/01/17 04:31:40;0.00;0.00;0.62;0.00;0.00;0.62;4.70;1.70;;;18.80;26.70;;;;;;2249694;61;20387;-60
2022/01/17 04:34:26;0.00;0.00;0.62;0.00;0.00;0.62;6.10;2.07;;;18.80;26.70;;;;;;2249644;61;20371;-59
2022/01/17 04:37:11;0.00;0.00;0.62;0.00;0.00;0.62;4.43;2.13;;;18.80;26.70;;;;;;2249674;61;20348;-60
2022/01/17 04:39:56;0.00;0.00;0.62;0.00;0.00;0.62;5.43;1.63;;;18.70;26.70;;;;;;2249110;61;20528;-60
2022/01/17 04:42:45;0.00;0.00;0.62;0.00;0.00;0.62;4.37;1.57;;;18.70;26.80;;;;;;2249978;61;20664;-60
2022/01/17 04:45:29;0.00;0.00;0.62;0.00;0.00;0.62;4.87;1.67;;;18.70;26.80;;;;;;2250105;61;20392;-60
2022/01/17 04:48:14;0.00;0.00;0.62;0.00;0.00;0.62;3.90;1.63;;;18.70;26.80;;;;;;2249494;61;20368;-60
2022/01/17 04:51:00;0.00;0.00;0.62;0.00;0.00;0.62;4.57;2.10;;;18.60;26.80;;;;;;2249812;61;20614;-59
2022/01/17 04:54:01;0.00;0.00;0.62;0.00;0.00;0.62;4.83;1.57;;;18.60;26.90;;;;;;2249767;61;20412;-60
2022/01/17 04:56:45;0.00;0.00;0.62;0.00;0.00;0.62;5.20;1.67;;;18.60;26.90;;;;;;2249599;61;20361;-60
2022/01/17 04:59:29;0.00;0.00;0.62;0.00;0.00;0.62;3.20;1.20;;;18.60;26.90;;;;;;2249989;61;20740;-61
2022/01/17 05:02:14;0.00;0.00;0.62;0.00;0.00;0.62;4.10;1.37;;;18.60;26.90;;;;;;2249171;61;20435;-60
2022/01/17 05:04:59;0.00;0.00;0.62;0.00;0.00;0.62;5.07;1.63;;;18.60;26.90;;;;;;2249842;61;20385;-60
2022/01/17 05:07:46;0.00;0.00;0.62;0.00;0.00;0.62;6.67;1.60;;;18.60;26.90;;;;;;2249914;61;20858;-60
2022/01/17 05:10:30;0.00;0.00;0.62;0.00;0.00;0.62;4.17;1.60;;;18.60;26.90;;;;;;2249242;61;20581;-60
2022/01/17 05:13:19;0.00;0.00;0.62;0.00;0.00;0.62;8.90;2.07;;;18.60;27.40;;;;;;2249780;61;20388;-59
2022/01/17 05:16:09;0.00;0.00;0.62;0.00;0.00;0.62;4.70;1.47;;;18.50;26.90;;;;;;2249609;61;20472;-60
2022/01/17 05:21:57;0.00;0.00;0.62;0.00;0.00;0.62;4.20;1.90;;;18.50;26.80;;;;;;2250082;61;20381;-63
2022/01/17 05:24:44;0.00;0.00;0.62;0.00;0.00;0.62;5.87;1.87;;;18.40;26.70;;;;;;2248880;61;20780;-61
2022/01/17 05:27:29;0.00;0.00;0.62;0.00;0.00;0.62;3.70;1.63;;;18.40;26.80;;;;;;2249806;61;20364;-61
2022/01/17 05:30:17;0.00;0.00;0.62;0.00;0.00;0.62;3.50;1.70;;;18.40;26.80;;;;;;2249754;61;20400;-61
2022/01/17 05:33:02;0.00;0.00;0.62;0.00;0.00;0.62;4.33;2.23;;;18.40;26.80;;;;;;2249076;61;20360;-56
2022/01/17 05:35:47;0.00;0.00;0.62;0.00;0.00;0.62;5.00;1.87;;;18.40;26.80;;;;;;2249726;61;20565;-60
2022/01/17 05:38:32;0.00;0.00;0.62;0.00;0.00;0.62;4.63;2.20;;;18.40;26.80;;;;;;2249444;61;20575;-60
2022/01/17 05:41:18;0.00;0.00;0.62;0.00;0.00;0.62;5.97;2.37;;;18.30;26.60;;;;;;2249192;61;20804;-60
2022/01/17 05:44:02;0.00;0.00;0.62;0.00;0.00;0.62;5.00;2.00;;;18.30;26.40;;;;;;2250097;61;20451;-60
2022/01/17 05:46:47;0.00;0.00;0.62;0.00;0.00;0.62;6.10;2.23;;;18.30;26.40;;;;;;2248926;61;20393;-60
2022/01/17 05:49:31;0.00;0.00;0.62;0.00;0.00;0.62;5.70;2.00;;;18.20;26.50;;;;;;2249725;61;20353;-59
2022/01/17 05:52:16;0.00;0.00;0.62;0.00;0.00;0.62;3.87;1.50;;;18.20;26.50;;;;;;2249682;61;20608;-58
2022/01/17 05:55:03;0.00;0.00;0.62;0.00;0.00;0.62;3.97;1.60;;;18.10;26.40;;;;;;2248695;61;20959;-60
2022/01/17 05:57:49;0.00;0.00;0.62;0.00;0.00;0.62;3.43;1.27;;;18.20;26.70;;;;;;2249440;61;20380;-58
2022/01/17 06:00:33;0.00;0.00;0.62;0.00;0.00;0.62;2.53;1.43;;;18.10;26.80;;;;;;2249199;61;20585;-61
2022/01/17 06:03:18;0.00;0.00;0.62;0.00;0.00;0.62;6.43;1.57;;;18.20;27.00;;;;;;2249248;61;20357;-60
2022/01/17 06:06:03;0.00;0.00;0.62;0.00;0.00;0.62;4.77;1.63;;;18.20;27.10;;;;;;2249845;61;20755;-59
2022/01/17 06:08:49;0.00;0.00;0.62;0.00;0.00;0.62;3.13;1.40;;;18.20;27.20;;;;;;2248522;61;20876;-59
2022/01/17 06:11:34;0.00;0.00;0.62;0.00;0.00;0.62;5.03;1.60;;;18.30;27.30;;;;;;2249460;61;20430;-58
2022/01/17 06:14:21;0.00;0.00;0.62;0.00;0.00;0.62;2.00;1.07;;;18.30;27.30;;;;;;2249420;61;20376;-60
2022/01/17 06:17:05;0.00;0.00;0.62;0.00;0.00;0.62;3.00;1.37;;;18.40;27.40;;;;;;2248632;61;20370;-58
2022/01/17 06:19:50;0.00;0.00;0.62;0.00;0.00;0.62;2.53;1.33;;;18.40;27.40;;;;;;2249357;61;20380;-58
2022/01/17 06:22:35;0.00;0.00;0.62;0.00;0.00;0.62;4.30;1.30;;;18.50;27.40;;;;;;2249219;61;20452;-60
2022/01/17 06:25:19;0.00;0.00;0.62;0.00;0.00;0.62;3.03;1.30;;;18.50;28.00;;;;;;2249102;61;20724;-60
2022/01/17 06:28:04;0.00;0.00;0.62;0.00;0.00;0.62;3.20;1.10;;;18.60;27.50;;;;;;2249724;61;20841;-61
2022/01/17 06:30:50;0.00;0.00;0.62;0.00;0.00;0.62;2.90;0.90;;;18.60;27.50;;;;;;2248611;61;20385;-58
2022/01/17 06:33:35;0.00;0.00;0.62;0.00;0.00;0.62;4.63;1.10;;;18.70;27.60;;;;;;2249441;61;20365;-59
2022/01/17 06:36:20;0.00;0.00;0.62;0.00;0.00;0.62;2.60;1.07;;;18.70;27.50;;;;;;2249717;61;20432;-58
2022/01/17 06:39:04;0.00;0.00;0.62;0.00;0.00;0.62;2.30;1.30;;;18.70;27.50;;;;;;2248642;61;20360;-59
2022/01/17 06:41:50;0.00;0.00;0.62;0.00;0.00;0.62;2.40;1.17;;;18.80;27.50;;;;;;2249223;61;20602;-59
2022/01/17 06:44:35;0.00;0.00;0.62;0.00;0.00;0.62;2.03;1.00;;;18.80;27.50;;;;;;2249341;61;20497;-60
2022/01/17 06:47:21;0.00;0.00;0.62;0.00;0.00;0.62;2.90;1.10;;;18.90;27.50;;;;;;2249047;61;20361;-60
2022/01/17 06:50:08;0.00;0.00;0.62;0.00;0.00;0.62;2.67;1.13;;;18.90;27.50;;;;;;2249394;61;20364;-59
2022/01/17 06:52:53;0.00;0.00;0.62;0.00;0.00;0.62;2.70;1.33;;;18.90;27.50;;;;;;2248717;61;20364;-59
2022/01/17 06:55:37;0.00;0.00;0.62;0.00;0.00;0.62;3.40;1.23;;;19.00;27.50;;;;;;2249526;61;20673;-59
2022/01/17 06:58:22;0.00;0.00;0.62;0.00;0.00;0.62;3.60;1.20;;;19.00;27.50;;;;;;2249829;61;20368;-61
2022/01/17 07:01:07;0.00;0.00;0.62;0.00;0.00;0.62;1.60;0.87;;;19.00;27.50;;;;;;2248437;61;20431;-60
2022/01/17 07:03:53;0.00;0.00;0.62;0.00;0.00;0.62;2.33;1.00;;;19.10;27.50;;;;;;2249464;61;20360;-61
2022/01/17 07:06:38;0.00;0.00;0.62;0.00;0.00;0.62;1.80;0.97;;;19.10;27.50;;;;;;2248951;61;20373;-60
2022/01/17 07:09:23;0.00;0.00;0.62;0.00;0.00;0.62;3.13;1.13;;;19.10;27.50;;;;;;2249079;61;20396;-59
2022/01/17 07:12:09;0.00;0.00;0.62;0.00;0.00;0.62;1.67;0.80;;;19.10;27.50;;;;;;2249476;61;20412;-61
2022/01/17 07:14:54;0.00;0.00;0.62;0.00;0.00;0.62;2.27;1.07;;;19.20;27.60;;;;;;2249043;61;20457;-59
2022/01/17 07:17:39;0.00;0.00;0.62;0.00;0.00;0.62;1.70;0.80;;;19.20;27.50;;;;;;2249387;61;20437;-59
2022/01/17 07:20:25;0.00;0.00;0.62;0.00;0.00;0.62;2.00;0.87;;;19.20;27.50;;;;;;2249451;61;20415;-61
2022/01/17 07:23:09;0.00;0.00;0.62;0.00;0.00;0.62;1.40;0.90;;;19.20;27.40;;;;;;2248493;61;20373;-59
2022/01/17 07:25:54;0.00;0.00;0.62;0.00;0.00;0.62;1.87;0.93;;;19.30;27.50;;;;;;2249383;61;20472;-60
2022/01/17 07:28:39;0.00;0.00;0.62;0.00;0.00;0.62;2.47;0.90;;;19.30;27.50;;;;;;2249979;61;20413;-59
2022/01/17 07:31:23;0.00;0.00;0.62;0.00;0.00;0.62;1.47;0.70;;;19.30;27.50;;;;;;2249399;61;20645;-61
2022/01/17 07:34:09;0.00;0.00;0.62;0.00;0.00;0.62;3.23;0.90;;;19.30;27.50;;;;;;2249975;61;20408;-60
2022/01/17 07:36:55;0.00;0.00;0.62;0.00;0.00;0.62;3.73;1.20;;;19.40;27.50;;;;;;2249626;61;20564;-59
2022/01/17 07:39:39;0.00;0.00;0.62;0.00;0.00;0.62;1.90;1.10;;;19.40;27.50;;;;;;2249506;61;20380;-60
2022/01/17 07:42:24;0.00;0.00;0.62;0.00;0.00;0.62;2.43;0.83;;;19.40;27.50;;;;;;2250119;61;20400;-60
2022/01/17 07:45:12;0.00;0.00;0.62;0.00;0.00;0.62;1.83;0.80;;;19.50;27.50;;;;;;2249079;61;20601;-59
2022/01/17 07:48:11;0.00;0.00;0.62;0.00;0.00;0.62;1.70;0.70;;;19.50;27.50;;;;;;2249997;61;20712;-60
2022/01/17 07:50:55;0.00;0.00;0.62;0.00;0.00;0.62;1.60;0.80;;;19.50;27.50;;;;;;2249890;61;20383;-60
2022/01/17 07:53:41;0.00;0.00;0.62;0.00;0.00;0.62;2.20;1.10;;;19.50;27.40;;;;;;2249637;61;20368;-60
2022/01/17 07:56:26;0.00;0.00;0.62;0.00;0.00;0.62;1.83;0.80;;;19.50;27.40;;;;;;2249865;61;20369;-59
2022/01/17 07:59:12;0.00;0.00;0.62;0.00;0.00;0.62;1.90;1.13;;;19.50;27.40;;;;;;2249742;61;20444;-60
2022/01/17 08:02:00;0.00;0.00;0.62;0.00;0.00;0.62;1.77;0.97;;;19.60;27.50;;;;;;2249370;61;20400;-61
2022/01/17 08:04:44;0.00;0.00;0.62;0.00;0.00;0.62;2.10;0.90;;;19.60;27.40;;;;;;2250199;61;20808;-58
2022/01/17 08:07:30;0.00;0.00;0.62;0.00;0.00;0.62;1.70;0.97;;;19.60;27.40;;;;;;2249045;61;20393;-59
2022/01/17 08:10:16;0.00;0.00;0.62;0.00;0.00;0.62;2.20;0.83;;;19.60;27.40;;;;;;2249732;61;20395;-61
2022/01/17 08:13:00;0.00;0.00;0.62;0.00;0.00;0.62;1.60;0.80;;;19.70;27.50;;;;;;2250033;61;20361;-62
2022/01/17 08:15:46;0.00;0.00;0.62;0.00;0.00;0.62;2.50;0.80;;;19.70;27.40;;;;;;2249380;61;20392;-60
2022/01/17 08:18:30;0.00;0.00;0.62;0.00;0.00;0.62;1.70;0.73;;;19.70;27.40;;;;;;2249635;61;20400;-61
2022/01/17 08:21:15;0.00;0.00;0.62;0.00;0.00;0.62;1.70;0.83;;;19.70;27.40;;;;;;2249749;61;20385;-59
2022/01/17 08:24:00;0.00;0.00;0.62;0.00;0.00;0.62;1.30;0.70;;;19.70;27.40;;;;;;2248956;61;20368;-59
2022/01/17 08:26:46;0.00;0.00;0.62;0.00;0.00;0.62;1.70;0.80;;;19.70;27.40;;;;;;2250274;61;20732;-59
2022/01/17 08:29:30;0.00;0.00;0.62;0.00;0.00;0.62;2.13;0.87;;;19.80;27.40;;;;;;2248820;61;20368;-60
2022/01/17 08:32:15;0.00;0.00;0.62;0.00;0.00;0.62;1.87;0.90;;;19.80;27.40;;;;;;2249568;61;20427;-59
2022/01/17 08:35:00;0.00;0.00;0.62;0.00;0.00;0.62;2.07;0.97;;;19.80;27.40;;;;;;2249938;61;20429;-59
2022/01/17 08:37:45;0.00;0.00;0.62;0.00;0.00;0.62;2.17;0.80;;;19.80;27.40;;;;;;2248783;61;20369;-59
2022/01/17 08:40:29;0.00;0.00;0.62;0.00;0.00;0.62;3.90;0.93;;;19.80;27.40;;;;;;2249596;61;20400;-60
2022/01/17 08:43:15;0.00;0.00;0.62;0.00;0.00;0.62;2.27;0.80;;;19.80;27.40;;;;;;2249547;61;20380;-61
2022/01/17 08:46:00;0.00;0.00;0.62;0.00;0.00;0.62;2.23;0.90;;;19.90;27.40;;;;;;2249339;61;20392;-60
2022/01/17 08:48:45;0.00;0.00;0.62;0.00;0.00;0.62;2.53;1.20;;;19.80;27.30;;;;;;2250195;61;20404;-60
2022/01/17 08:51:30;0.00;0.00;0.62;0.00;0.00;0.62;2.60;1.00;;;19.90;27.40;;;;;;2248720;61;20768;-62
2022/01/17 08:54:15;0.00;0.00;0.62;0.00;0.00;0.62;1.90;1.10;;;19.90;27.40;;;;;;2249768;61;20352;-61
2022/01/17 08:56:59;0.00;0.00;0.62;0.00;0.00;0.62;2.30;1.17;;;19.90;27.40;;;;;;2249781;61;20444;-61
2022/01/17 08:59:45;0.00;0.00;0.62;0.00;0.00;0.62;2.37;1.03;;;19.90;27.40;;;;;;2248693;61;20408;-60
2022/01/17 09:02:30;0.00;0.00;0.62;0.00;0.00;0.62;1.60;0.70;;;19.90;27.30;;;;;;2249831;61;20460;-58
2022/01/17 09:05:14;0.00;0.00;0.62;0.00;0.00;0.62;2.10;0.93;;;19.90;27.40;;;;;;2249413;61;20685;-61
2022/01/17 09:08:01;0.00;0.00;0.62;0.00;0.00;0.62;1.53;0.77;;;19.90;27.30;;;;;;2249262;61;20590;-62
2022/01/17 09:10:47;0.00;0.00;0.62;0.00;0.00;0.62;1.70;0.90;;;20.00;27.40;;;;;;2249757;61;20460;-61
2022/01/17 09:13:31;0.00;0.00;0.62;0.00;0.00;0.62;1.80;0.90;;;20.00;27.40;;;;;;2249230;61;20438;-61
2022/01/17 09:16:17;0.00;0.00;0.62;0.00;0.00;0.62;1.67;0.90;;;20.00;27.40;;;;;;2249787;61;20461;-60
2022/01/17 09:19:04;0.00;0.00;0.62;0.00;0.00;0.62;2.60;0.73;;;20.00;27.40;;;;;;2249910;61;20373;-61
2022/01/17 09:21:49;0.00;0.00;0.62;0.00;0.00;0.62;1.90;0.90;;;20.00;27.40;;;;;;2248707;61;20396;-61
2022/01/17 09:24:34;0.00;0.00;0.62;0.00;0.00;0.62;1.70;0.70;;;20.00;27.40;;;;;;2249694;61;20374;-60
2022/01/17 09:27:19;0.00;0.00;0.62;0.00;0.00;0.62;1.57;0.80;;;20.00;27.30;;;;;;2249310;61;20364;-61
2022/01/17 09:30:07;0.00;0.00;0.62;0.00;0.00;0.62;1.50;0.80;;;20.00;27.40;;;;;;2249181;61;20377;-61
2022/01/17 09:32:53;0.00;0.00;0.62;0.00;0.00;0.62;1.20;0.70;;;20.00;27.30;;;;;;2249648;61;20365;-61
2022/01/17 09:35:37;0.00;0.00;0.62;0.00;0.00;0.62;1.40;0.70;;;20.00;27.30;;;;;;2249261;61;20454;-61
2022/01/17 09:38:22;0.00;0.00;0.62;0.00;0.00;0.62;1.53;0.90;;;20.10;27.40;;;;;;2249607;61;20384;-61
2022/01/17 09:41:07;0.00;0.00;0.62;0.00;0.00;0.62;2.10;0.90;;;20.10;27.40;;;;;;2249776;61;20759;-62
2022/01/17 09:43:52;0.00;0.00;0.62;0.00;0.00;0.62;1.97;0.97;;;20.10;27.40;;;;;;2248701;61;20378;-61
2022/01/17 09:46:42;0.00;0.00;0.62;0.00;0.00;0.62;2.97;0.97;;;20.10;27.40;;;;;;2249591;61;20385;-61
2022/01/17 09:49:51;0.00;0.00;0.62;0.00;0.00;0.62;1.70;0.80;;;20.10;27.40;;;;;;2249418;61;20369;-60
2022/01/17 09:52:39;0.00;0.00;0.62;0.00;0.00;0.62;1.60;0.83;;;20.10;27.30;;;;;;2249263;61;20389;-62
2022/01/17 09:55:26;0.00;0.00;0.62;0.00;0.00;0.62;1.40;0.80;;;20.10;27.30;;;;;;2249932;61;20413;-60
2022/01/17 09:58:13;0.00;0.00;0.62;0.00;0.00;0.62;2.87;1.07;;;20.10;27.30;;;;;;2248392;61;20360;-60
2022/01/17 10:00:59;0.00;0.00;0.62;0.00;0.00;0.62;2.10;0.90;;;20.10;27.30;;;;;;2249415;61;20600;-60
2022/01/17 10:03:45;0.00;0.00;0.62;0.00;0.00;0.62;2.77;1.67;;;20.10;27.30;;;;;;2249516;61;20364;-60
2022/01/17 10:06:31;0.00;0.00;0.62;0.00;0.00;0.62;1.80;0.90;;;20.20;27.40;;;;;;2248822;61;20783;-61
2022/01/17 10:09:21;0.00;0.00;0.62;0.00;0.00;0.62;1.73;1.10;;;20.20;27.40;;;;;;2249660;61;20368;-60
2022/01/17 10:12:10;0.00;0.00;0.62;0.00;0.00;0.62;2.73;0.97;;;20.10;27.30;;;;;;2249106;61;20748;-61
2022/01/17 10:14:59;0.00;0.00;0.62;0.00;0.00;0.62;1.97;0.80;;;20.20;27.40;;;;;;2249219;61;20740;-61
2022/01/17 10:17:46;0.00;0.00;0.62;0.00;0.00;0.62;2.03;0.80;;;20.20;27.40;;;;;;2249762;61;20370;-61
2022/01/17 10:20:44;0.00;0.00;0.62;0.00;0.00;0.62;1.30;0.70;;;20.20;27.40;;;;;;2248219;61;20788;-61
2022/01/17 10:26:59;0.00;0.00;0.62;0.00;0.00;0.62;1.90;1.03;;;20.20;27.40;;;;;;2249286;61;20420;-59
2022/01/17 10:35:54;0.00;0.00;0.62;0.00;0.00;0.62;1.80;0.90;;;20.20;27.40;;;;;;2248757;61;20388;-60
2022/01/17 10:38:40;0.00;0.00;0.62;0.00;0.00;0.62;1.40;0.80;;;20.20;27.40;;;;;;2249395;61;20380;-61
2022/01/17 10:41:26;0.00;0.00;0.62;0.00;0.00;0.62;1.20;0.70;;;20.30;27.40;;;;;;2249060;61;20618;-61
2022/01/17 10:44:11;0.00;0.00;0.62;0.00;0.00;0.62;1.70;0.80;;;20.20;27.40;;;;;;2249066;61;20373;-61
2022/01/17 10:47:28;0.00;0.00;0.62;0.00;0.00;0.62;1.70;0.80;;;20.30;27.90;;;;;;2249491;61;20364;-59
2022/01/17 10:50:18;0.00;0.00;0.62;0.00;0.00;0.62;1.83;0.80;;;20.30;27.40;;;;;;2248316;61;20424;-60
2022/01/17 10:53:06;0.00;0.00;0.62;0.00;0.00;0.62;1.83;0.80;;;20.30;27.40;;;;;;2249481;61;20352;-62
2022/01/17 10:55:55;0.00;0.00;0.62;0.00;0.00;0.62;1.70;0.87;;;20.30;27.40;;;;;;2249426;61;20408;-60
2022/01/17 10:58:41;0.00;0.00;0.62;0.00;0.00;0.62;1.80;0.83;;;20.30;27.40;;;;;;2249105;61;20744;-61
2022/01/17 11:01:25;0.00;0.00;0.62;0.00;0.00;0.62;1.80;0.80;;;20.30;27.40;;;;;;2249504;61;20470;-60
2022/01/17 11:04:10;0.00;0.00;0.62;0.00;0.00;0.62;1.60;0.90;;;20.30;27.40;;;;;;2249832;61;20465;-59
2022/01/17 11:07:02;0.00;0.00;0.62;0.00;0.00;0.62;1.97;1.20;;;20.40;27.40;;;;;;2249576;61;20707;-60
2022/01/17 11:09:50;0.00;0.00;0.62;0.00;0.00;0.62;1.83;0.90;;;20.30;27.40;;;;;;2250379;61;20591;-60
2022/01/17 11:12:38;0.00;0.00;0.62;0.00;0.00;0.62;1.30;0.80;;;20.40;27.40;;;;;;2249147;61;20607;-62
2022/01/17 11:15:25;0.00;0.00;0.62;0.00;0.00;0.62;2.00;0.93;;;20.40;27.40;;;;;;2250051;61;20373;-59